createdAt,value
2023-04-20T00:00:39.658Z,8.63
2023-04-20T00:01:42.063Z,8.32
2023-04-20T00:02:44.130Z,8.50
2023-04-20T00:03:45.947Z,8.73
2023-04-20T00:04:47.629Z,8.75
2023-04-20T00:05:52.299Z,8.48
2023-04-20T00:06:54.124Z,8.27
2023-04-20T00:07:55.776Z,8.48
2023-04-20T00:08:57.384Z,7.90
2023-04-20T00:09:59.320Z,9.13
2023-04-20T00:11:00.993Z,8.23
2023-04-20T00:12:02.607Z,8.38
2023-04-20T00:13:04.195Z,8.40
2023-04-20T00:14:05.987Z,8.50
2023-04-20T00:15:07.915Z,8.35
2023-04-20T00:16:09.582Z,7.97
2023-04-20T00:17:11.270Z,7.68
2023-04-20T00:18:12.894Z,8.00
2023-04-20T00:19:14.607Z,8.73
2023-04-20T00:20:19.214Z,9.57
2023-04-20T00:21:24.314Z,8.80
2023-04-20T00:22:26.418Z,8.75
2023-04-20T00:23:28.085Z,9.15
2023-04-20T00:24:29.730Z,8.98
2023-04-20T00:25:32.203Z,9.52
2023-04-20T00:26:34.618Z,10.05
2023-04-20T00:28:37.976Z,8.90
2023-04-20T00:29:42.228Z,10.20
2023-04-20T00:30:43.854Z,9.27
2023-04-20T00:31:45.597Z,9.75
2023-04-20T00:32:49.216Z,10.45
2023-04-20T00:33:50.848Z,10.75
2023-04-20T00:34:52.424Z,10.55
2023-04-20T00:35:54.018Z,10.75
2023-04-20T00:36:58.648Z,10.77
2023-04-20T00:38:00.751Z,11.25
2023-04-20T00:39:02.529Z,11.82
2023-04-20T00:40:04.804Z,12.07
2023-04-20T00:41:06.482Z,11.30
2023-04-20T00:42:09.063Z,11.93
2023-04-20T00:44:14.125Z,10.65
2023-04-20T00:45:15.828Z,10.82
2023-04-20T00:46:17.636Z,11.35
2023-04-20T00:47:19.301Z,11.57
2023-04-20T00:48:21.019Z,11.25
2023-04-20T00:49:25.361Z,12.15
2023-04-20T00:50:27.034Z,11.93
2023-04-20T00:51:29.068Z,12.50
2023-04-20T00:52:31.238Z,12.00
2023-04-20T00:53:33.156Z,11.93
2023-04-20T00:54:36.314Z,13.45
2023-04-20T00:55:38.779Z,12.85
2023-04-20T00:56:40.567Z,11.77
2023-04-20T00:57:42.954Z,12.32
2023-04-20T00:58:44.767Z,11.68
2023-04-20T00:59:46.609Z,12.32
2023-04-20T01:01:52.765Z,10.88
2023-04-20T01:02:54.635Z,11.88
2023-04-20T01:03:56.459Z,11.25
2023-04-20T01:04:58.711Z,12.23
2023-04-20T01:06:00.770Z,11.52
2023-04-20T01:07:03.040Z,11.98
2023-04-20T01:08:04.799Z,12.95
2023-04-20T01:09:06.842Z,12.30
2023-04-20T01:10:09.605Z,11.65
2023-04-20T01:11:14.335Z,11.88
2023-04-20T01:12:16.033Z,12.27
2023-04-20T01:13:18.736Z,11.80
2023-04-20T01:14:20.381Z,12.15
2023-04-20T01:15:22.021Z,12.23
2023-04-20T01:16:23.646Z,11.65
2023-04-20T01:17:25.550Z,12.63
2023-04-20T01:18:27.723Z,12.63
2023-04-20T01:19:29.269Z,12.45
2023-04-20T01:20:31.519Z,12.57
2023-04-20T01:21:33.184Z,12.02
2023-04-20T01:22:42.649Z,13.20
2023-04-20T01:23:44.952Z,12.95
2023-04-20T01:24:47.095Z,13.18
2023-04-20T01:25:48.640Z,12.50
2023-04-20T01:26:50.185Z,12.52
2023-04-20T01:27:51.758Z,12.75
2023-04-20T01:28:53.545Z,12.98
2023-04-20T01:29:55.077Z,13.25
2023-04-20T01:30:56.626Z,13.20
2023-04-20T01:31:58.789Z,12.63
2023-04-20T01:33:00.463Z,12.50
2023-04-20T01:34:02.083Z,13.00
2023-04-20T01:35:04.397Z,12.85
2023-04-20T01:36:09.358Z,13.77
2023-04-20T01:37:10.953Z,14.20
2023-04-20T01:38:18.830Z,12.77
2023-04-20T01:39:20.582Z,13.43
2023-04-20T01:40:22.204Z,13.88
2023-04-20T01:41:24.572Z,13.55
2023-04-20T01:42:26.135Z,12.95
2023-04-20T01:43:27.759Z,13.07
2023-04-20T01:44:29.305Z,13.65
2023-04-20T01:45:30.907Z,13.85
2023-04-20T01:46:32.492Z,12.90
2023-04-20T01:47:34.444Z,14.55
2023-04-20T01:48:36.071Z,13.43
2023-04-20T01:49:37.602Z,12.52
2023-04-20T01:50:39.163Z,13.00
2023-04-20T01:51:40.974Z,13.70
2023-04-20T01:52:42.507Z,13.32
2023-04-20T01:53:44.763Z,13.18
2023-04-20T01:54:46.507Z,13.45
2023-04-20T01:55:49.450Z,12.40
2023-04-20T01:56:50.987Z,13.23
2023-04-20T01:57:52.593Z,13.23
2023-04-20T01:58:54.879Z,13.48
2023-04-20T01:59:56.433Z,12.55
2023-04-20T02:01:02.372Z,12.60
2023-04-20T02:02:03.990Z,13.05
2023-04-20T02:03:07.764Z,13.02
2023-04-20T02:04:09.558Z,13.30
2023-04-20T02:05:11.143Z,13.27
2023-04-20T02:06:12.698Z,13.35
2023-04-20T02:07:14.252Z,13.32
2023-04-20T02:08:15.791Z,12.73
2023-04-20T02:09:17.571Z,12.85
2023-04-20T02:10:19.336Z,13.23
2023-04-20T02:11:22.419Z,13.05
2023-04-20T02:12:24.013Z,13.23
2023-04-20T02:13:25.675Z,13.60
2023-04-20T02:14:27.275Z,13.27
2023-04-20T02:15:28.996Z,13.05
2023-04-20T02:16:31.520Z,13.15
2023-04-20T02:18:34.529Z,13.00
2023-04-20T02:19:36.526Z,12.98
2023-04-20T02:20:38.180Z,13.57
2023-04-20T02:21:39.723Z,13.68
2023-04-20T02:22:41.339Z,12.68
2023-04-20T02:23:42.911Z,12.30
2023-04-20T02:24:44.463Z,11.82
2023-04-20T02:25:46.004Z,12.75
2023-04-20T02:26:47.620Z,12.20
2023-04-20T02:27:49.607Z,12.02
2023-04-20T02:28:51.234Z,13.15
2023-04-20T02:29:52.831Z,12.43
2023-04-20T02:30:54.341Z,11.38
2023-04-20T02:31:55.959Z,11.38
2023-04-20T02:32:57.640Z,11.50
2023-04-20T02:33:59.274Z,12.10
2023-04-20T02:35:04.009Z,12.05
2023-04-20T02:36:05.636Z,11.52
2023-04-20T02:37:07.323Z,11.63
2023-04-20T02:38:09.531Z,11.48
2023-04-20T02:39:13.334Z,11.13
2023-04-20T02:40:15.237Z,11.93
2023-04-20T02:41:16.827Z,11.57
2023-04-20T02:42:19.309Z,12.38
2023-04-20T02:43:22.501Z,11.10
2023-04-20T02:44:24.231Z,11.65
2023-04-20T02:45:25.979Z,10.73
2023-04-20T02:46:27.619Z,12.13
2023-04-20T02:47:29.227Z,12.32
2023-04-20T02:48:30.900Z,10.85
2023-04-20T02:49:35.000Z,12.00
2023-04-20T02:50:38.304Z,11.80
2023-04-20T02:51:48.147Z,11.85
2023-04-20T02:52:49.698Z,11.77
2023-04-20T02:53:51.385Z,11.95
2023-04-20T02:55:03.569Z,11.32
2023-04-20T02:56:05.442Z,11.82
2023-04-20T02:57:15.643Z,11.07
2023-04-20T02:58:17.629Z,11.93
2023-04-20T02:59:57.529Z,12.25
2023-04-20T03:01:04.169Z,11.35
2023-04-20T03:02:06.228Z,11.30
2023-04-20T03:03:08.048Z,11.15
2023-04-20T03:04:09.787Z,11.95
2023-04-20T03:05:17.739Z,12.02
2023-04-20T03:06:19.368Z,12.13
2023-04-20T03:07:26.913Z,12.40
2023-04-20T03:08:28.460Z,13.10
2023-04-20T03:09:32.941Z,12.20
2023-04-20T03:10:49.433Z,12.85
2023-04-20T03:11:54.400Z,12.50
2023-04-20T03:13:22.235Z,11.60
2023-04-20T03:14:33.724Z,11.57
2023-04-20T03:15:35.636Z,12.18
2023-04-20T03:16:42.657Z,12.00
2023-04-20T03:17:45.322Z,12.13
2023-04-20T03:18:46.971Z,11.98
2023-04-20T03:19:48.578Z,13.25
2023-04-20T03:20:50.185Z,11.43
2023-04-20T03:21:51.786Z,11.15
2023-04-20T03:22:53.431Z,11.40
2023-04-20T03:23:58.484Z,11.48
2023-04-20T03:25:00.152Z,11.90
2023-04-20T03:26:26.728Z,11.00
2023-04-20T03:27:40.178Z,11.52
2023-04-20T03:28:45.559Z,10.95
2023-04-20T03:29:51.008Z,12.15
2023-04-20T03:30:52.751Z,14.50
2023-04-20T03:31:54.315Z,13.20
2023-04-20T03:32:56.121Z,14.05
2023-04-20T03:33:57.729Z,14.07
2023-04-20T03:34:59.455Z,15.07
2023-04-20T03:36:01.019Z,13.65
2023-04-20T03:37:02.564Z,12.13
2023-04-20T03:38:04.117Z,12.82
2023-04-20T03:39:05.681Z,13.18
2023-04-20T03:40:08.656Z,13.25
2023-04-20T03:41:10.262Z,12.98
2023-04-20T03:42:11.878Z,12.45
2023-04-20T03:43:13.498Z,12.88
2023-04-20T03:44:15.175Z,12.38
2023-04-20T03:45:17.055Z,12.80
2023-04-20T03:46:18.771Z,12.65
2023-04-20T03:47:21.154Z,12.90
2023-04-20T03:48:22.836Z,11.80
2023-04-20T03:49:25.398Z,12.23
2023-04-20T03:51:28.477Z,11.43
2023-04-20T03:52:29.972Z,12.73
2023-04-20T03:53:32.862Z,12.93
2023-04-20T03:55:36.945Z,11.55
2023-04-20T03:56:41.978Z,11.73
2023-04-20T03:57:43.639Z,12.55
2023-04-20T03:58:45.297Z,11.65
2023-04-20T03:59:50.383Z,12.27
2023-04-20T04:01:09.343Z,12.35
2023-04-20T04:02:13.766Z,11.90
2023-04-20T04:03:17.897Z,12.15
2023-04-20T04:04:19.762Z,12.38
2023-04-20T04:05:21.681Z,11.90
2023-04-20T04:06:24.517Z,12.27
2023-04-20T04:07:26.484Z,12.13
2023-04-20T04:08:28.163Z,12.25
2023-04-20T04:09:30.453Z,12.40
2023-04-20T04:10:32.033Z,12.10
2023-04-20T04:11:33.599Z,11.50
2023-04-20T04:12:35.504Z,11.60
2023-04-20T04:13:37.733Z,12.07
2023-04-20T04:14:41.695Z,11.65
2023-04-20T04:15:44.488Z,12.82
2023-04-20T04:16:48.478Z,12.25
2023-04-20T04:17:50.672Z,10.98
2023-04-20T04:18:52.296Z,11.68
2023-04-20T04:19:53.834Z,11.07
2023-04-20T04:20:55.840Z,11.52
2023-04-20T04:21:57.440Z,11.77
2023-04-20T04:22:59.039Z,11.50
2023-04-20T04:24:09.621Z,10.63
2023-04-20T04:25:17.652Z,11.32
2023-04-20T04:26:21.427Z,11.90
2023-04-20T04:27:23.400Z,12.02
2023-04-20T04:28:31.412Z,11.23
2023-04-20T04:29:44.971Z,10.90
2023-04-20T04:30:51.662Z,11.45
2023-04-20T04:31:54.156Z,12.27
2023-04-20T04:32:55.976Z,11.57
2023-04-20T04:33:57.524Z,12.15
2023-04-20T04:35:13.965Z,12.25
2023-04-20T04:36:15.759Z,12.20
2023-04-20T04:37:17.389Z,12.13
2023-04-20T04:38:23.084Z,12.80
2023-04-20T04:39:26.676Z,11.98
2023-04-20T04:40:38.081Z,11.85
2023-04-20T04:41:40.636Z,11.35
2023-04-20T04:42:52.613Z,11.60
2023-04-20T04:43:54.326Z,12.48
2023-04-20T04:45:03.500Z,11.55
2023-04-20T04:46:10.762Z,12.43
2023-04-20T04:47:12.361Z,12.43
2023-04-20T04:48:14.132Z,12.52
2023-04-20T04:49:16.142Z,11.88
2023-04-20T04:50:18.280Z,12.00
2023-04-20T04:51:20.784Z,12.07
2023-04-20T04:52:22.988Z,12.35
2023-04-20T04:53:24.507Z,13.00
2023-04-20T04:54:26.086Z,12.65
2023-04-20T04:55:27.576Z,12.40
2023-04-20T04:56:29.444Z,12.63
2023-04-20T04:57:31.000Z,12.27
2023-04-20T04:58:32.535Z,12.68
2023-04-20T04:59:34.043Z,13.80
2023-04-20T05:00:35.862Z,12.80
2023-04-20T05:01:37.475Z,12.60
2023-04-20T05:02:39.527Z,13.38
2023-04-20T05:03:41.508Z,13.48
2023-04-20T05:04:43.538Z,13.45
2023-04-20T05:05:45.566Z,12.93
2023-04-20T05:06:47.185Z,12.05
2023-04-20T05:07:48.823Z,12.38
2023-04-20T05:08:50.428Z,12.57
2023-04-20T05:09:52.081Z,12.75
2023-04-20T05:10:53.569Z,12.80
2023-04-20T05:11:55.238Z,12.32
2023-04-20T05:12:58.548Z,13.18
2023-04-20T05:14:02.415Z,13.13
2023-04-20T05:15:04.341Z,12.38
2023-04-20T05:16:06.125Z,11.77
2023-04-20T05:17:07.667Z,12.25
2023-04-20T05:18:09.247Z,12.25
2023-04-20T05:19:10.774Z,12.45
2023-04-20T05:20:12.356Z,12.50
2023-04-20T05:21:13.919Z,12.45
2023-04-20T05:22:15.535Z,11.88
2023-04-20T05:23:17.096Z,12.68
2023-04-20T05:24:19.375Z,11.90
2023-04-20T05:25:20.991Z,12.70
2023-04-20T05:26:22.575Z,13.00
2023-04-20T05:27:24.081Z,12.05
2023-04-20T05:28:26.796Z,12.65
2023-04-20T05:29:28.340Z,12.02
2023-04-20T05:30:29.855Z,12.82
2023-04-20T05:31:33.189Z,13.70
2023-04-20T05:32:34.831Z,12.05
2023-04-20T05:33:36.410Z,12.80
2023-04-20T05:34:37.983Z,12.73
2023-04-20T05:35:40.988Z,12.65
2023-04-20T05:36:42.560Z,12.52
2023-04-20T05:37:44.106Z,12.90
2023-04-20T05:38:45.842Z,12.30
2023-04-20T05:39:47.494Z,12.75
2023-04-20T05:40:50.341Z,11.98
2023-04-20T05:41:53.435Z,12.90
2023-04-20T05:42:54.982Z,13.65
2023-04-20T05:43:56.909Z,12.65
2023-04-20T05:44:58.515Z,12.77
2023-04-20T05:46:00.212Z,12.40
2023-04-20T05:47:02.263Z,11.98
2023-04-20T05:48:04.023Z,12.75
2023-04-20T05:49:06.376Z,11.63
2023-04-20T05:50:08.848Z,12.45
2023-04-20T05:51:10.597Z,12.30
2023-04-20T05:52:12.212Z,12.35
2023-04-20T05:53:15.541Z,12.00
2023-04-20T05:54:17.125Z,11.77
2023-04-20T05:55:22.062Z,12.10
2023-04-20T05:56:24.455Z,12.23
2023-04-20T05:57:26.042Z,12.38
2023-04-20T05:58:27.653Z,12.23
2023-04-20T05:59:29.229Z,11.30
2023-04-20T06:00:31.054Z,11.27
2023-04-20T06:01:32.677Z,11.63
2023-04-20T06:02:34.483Z,11.00
2023-04-20T06:03:36.373Z,10.77
2023-04-20T06:04:38.357Z,9.60
2023-04-20T06:05:40.066Z,10.10
2023-04-20T06:06:41.640Z,10.57
2023-04-20T06:07:43.300Z,10.23
2023-04-20T06:08:44.891Z,10.57
2023-04-20T06:09:46.410Z,10.32
2023-04-20T06:10:47.994Z,10.20
2023-04-20T06:11:49.541Z,7.97
2023-04-20T06:12:51.325Z,6.47
2023-04-20T06:13:52.827Z,5.90
2023-04-20T06:14:54.327Z,5.32
2023-04-20T06:15:55.969Z,5.65
2023-04-20T06:16:57.493Z,4.82
2023-04-20T06:17:59.220Z,5.18
2023-04-20T06:19:00.822Z,5.35
2023-04-20T06:20:02.413Z,5.22
2023-04-20T06:21:04.314Z,5.38
2023-04-20T06:22:09.022Z,4.90
2023-04-20T06:23:11.685Z,4.95
2023-04-20T06:25:15.479Z,5.03
2023-04-20T06:26:17.203Z,5.10
2023-04-20T06:27:19.024Z,5.47
2023-04-20T06:28:20.661Z,6.50
2023-04-20T06:29:22.208Z,6.13
2023-04-20T06:30:23.762Z,6.35
2023-04-20T06:31:25.286Z,5.93
2023-04-20T06:32:27.041Z,6.57
2023-04-20T06:33:28.825Z,6.22
2023-04-20T06:34:30.327Z,6.90
2023-04-20T06:35:31.916Z,6.30
2023-04-20T06:36:33.484Z,6.45
2023-04-20T06:37:36.600Z,6.10
2023-04-20T06:38:38.170Z,5.85
2023-04-20T06:39:39.714Z,5.93
2023-04-20T06:40:41.532Z,5.70
2023-04-20T06:41:43.499Z,5.90
2023-04-20T06:42:45.588Z,5.45
2023-04-20T06:43:47.263Z,4.70
2023-04-20T06:44:48.861Z,5.28
2023-04-20T06:45:50.425Z,5.55
2023-04-20T06:46:52.019Z,5.47
2023-04-20T06:47:53.647Z,5.50
2023-04-20T06:48:55.453Z,5.72
2023-04-20T06:50:01.932Z,5.68
2023-04-20T06:51:03.480Z,5.63
2023-04-20T06:52:05.978Z,5.97
2023-04-20T06:53:07.574Z,5.40
2023-04-20T06:54:09.154Z,5.20
2023-04-20T06:55:10.960Z,5.82
2023-04-20T06:56:12.511Z,5.22
2023-04-20T06:57:14.043Z,5.47
2023-04-20T06:58:15.586Z,4.93
2023-04-20T06:59:18.755Z,6.00
2023-04-20T07:00:20.637Z,6.13
2023-04-20T07:01:22.202Z,5.82
2023-04-20T07:02:23.815Z,5.78
2023-04-20T07:03:25.713Z,5.95
2023-04-20T07:04:27.508Z,6.10
2023-04-20T07:05:29.153Z,6.30
2023-04-20T07:06:30.702Z,6.57
2023-04-20T07:07:32.233Z,7.03
2023-04-20T07:08:34.021Z,6.70
2023-04-20T07:09:35.605Z,6.57
2023-04-20T07:10:37.146Z,6.43
2023-04-20T07:11:38.645Z,6.63
2023-04-20T07:12:42.844Z,6.30
2023-04-20T07:13:45.526Z,5.75
2023-04-20T07:14:47.533Z,6.35
2023-04-20T07:15:49.140Z,5.18
2023-04-20T07:16:53.709Z,5.93
2023-04-20T07:17:55.377Z,6.72
2023-04-20T07:18:57.106Z,6.13
2023-04-20T07:20:05.663Z,5.85
2023-04-20T07:21:07.210Z,5.75
2023-04-20T07:22:08.749Z,6.10
2023-04-20T07:23:10.336Z,6.65
2023-04-20T07:24:11.993Z,6.22
2023-04-20T07:25:13.650Z,5.95
2023-04-20T07:26:15.421Z,5.32
2023-04-20T07:27:17.229Z,5.30
2023-04-20T07:28:18.748Z,5.53
2023-04-20T07:29:20.706Z,5.82
2023-04-20T07:30:22.578Z,5.55
2023-04-20T07:31:24.101Z,5.70
2023-04-20T07:32:25.848Z,6.03
2023-04-20T07:33:29.703Z,5.05
2023-04-20T07:34:31.476Z,5.35
2023-04-20T07:35:33.004Z,5.38
2023-04-20T07:36:34.641Z,4.70
2023-04-20T07:37:36.290Z,5.65
2023-04-20T07:38:37.868Z,5.05
2023-04-20T07:39:39.384Z,4.97
2023-04-20T07:40:40.929Z,5.55
2023-04-20T07:41:42.506Z,5.22
2023-04-20T07:42:44.004Z,5.47
2023-04-20T07:43:45.561Z,5.50
2023-04-20T07:44:47.701Z,5.18
2023-04-20T07:45:49.270Z,5.32
2023-04-20T07:46:50.893Z,5.13
2023-04-20T07:47:54.059Z,4.72
2023-04-20T07:48:55.877Z,5.00
2023-04-20T07:49:57.660Z,5.25
2023-04-20T07:50:59.705Z,5.63
2023-04-20T07:52:15.225Z,4.75
2023-04-20T07:53:18.470Z,4.80
2023-04-20T07:54:20.481Z,4.97
2023-04-20T07:55:22.003Z,5.00
2023-04-20T07:56:23.657Z,4.38
2023-04-20T07:57:28.898Z,4.82
2023-04-20T07:58:30.484Z,4.22
2023-04-20T07:59:32.787Z,4.43
2023-04-20T08:00:34.259Z,4.15
2023-04-20T08:01:36.812Z,4.28
2023-04-20T08:03:41.051Z,3.40
2023-04-20T08:04:44.479Z,5.35
2023-04-20T08:05:46.416Z,3.97
2023-04-20T08:06:48.126Z,5.88
2023-04-20T08:07:49.762Z,4.53
2023-04-20T08:08:51.366Z,4.32
2023-04-20T08:09:52.943Z,4.03
2023-04-20T08:10:57.670Z,4.40
2023-04-20T08:12:00.484Z,4.35
2023-04-20T08:13:02.089Z,4.30
2023-04-20T08:14:03.618Z,4.22
2023-04-20T08:15:06.832Z,4.38
2023-04-20T08:16:08.471Z,4.40
2023-04-20T08:17:10.096Z,4.43
2023-04-20T08:18:11.704Z,4.15
2023-04-20T08:20:19.958Z,4.20
2023-04-20T08:21:25.455Z,4.60
2023-04-20T08:22:29.921Z,4.63
2023-04-20T08:23:31.479Z,4.40
2023-04-20T08:24:33.092Z,4.88
2023-04-20T08:25:34.773Z,4.30
2023-04-20T08:26:36.600Z,4.63
2023-04-20T08:27:38.201Z,3.97
2023-04-20T08:28:39.735Z,4.10
2023-04-20T08:29:41.532Z,4.30
2023-04-20T08:30:43.171Z,4.80
2023-04-20T08:31:44.840Z,4.72
2023-04-20T08:32:46.517Z,4.57
2023-04-20T08:33:48.127Z,4.47
2023-04-20T08:34:50.203Z,5.05
2023-04-20T08:35:51.907Z,4.53
2023-04-20T08:36:53.527Z,4.45
2023-04-20T08:37:55.083Z,4.25
2023-04-20T08:39:11.840Z,4.65
2023-04-20T08:40:13.859Z,5.10
2023-04-20T08:41:15.345Z,5.40
2023-04-20T08:42:17.052Z,4.35
2023-04-20T08:43:19.458Z,4.82
2023-04-20T08:44:22.484Z,4.32
2023-04-20T08:45:24.037Z,3.83
2023-04-20T08:46:25.998Z,4.55
2023-04-20T08:47:28.437Z,3.78
2023-04-20T08:48:35.653Z,3.67
2023-04-20T08:49:39.407Z,3.95
2023-04-20T08:50:41.191Z,4.25
2023-04-20T08:51:43.454Z,4.50
2023-04-20T08:52:45.327Z,4.05
2023-04-20T08:53:46.855Z,4.10
2023-04-20T08:54:55.804Z,4.00
2023-04-20T08:55:59.717Z,4.22
2023-04-20T08:57:01.765Z,3.22
2023-04-20T08:58:03.363Z,4.30
2023-04-20T08:59:05.779Z,2.88
2023-04-20T09:00:08.759Z,3.22
2023-04-20T09:01:12.758Z,3.40
2023-04-20T09:02:15.821Z,3.30
2023-04-20T09:03:17.601Z,3.50
2023-04-20T09:04:21.809Z,3.95
2023-04-20T09:05:28.260Z,3.28
2023-04-20T09:06:29.970Z,3.22
2023-04-20T09:07:31.970Z,3.05
2023-04-20T09:08:38.706Z,2.95
2023-04-20T09:09:40.238Z,3.17
2023-04-20T09:10:43.322Z,2.80
2023-04-20T09:11:45.404Z,3.00
2023-04-20T09:12:46.934Z,2.80
2023-04-20T09:14:03.198Z,3.05
2023-04-20T09:15:06.056Z,2.88
2023-04-20T09:16:11.933Z,2.95
2023-04-20T09:17:14.686Z,2.90
2023-04-20T09:18:17.408Z,2.80
2023-04-20T09:20:34.329Z,2.55
2023-04-20T09:21:35.814Z,2.72
2023-04-20T09:22:38.245Z,2.60
2023-04-20T09:23:40.536Z,2.85
2023-04-20T09:24:42.657Z,2.78
2023-04-20T09:25:50.520Z,2.30
2023-04-20T09:26:52.111Z,2.45
2023-04-20T09:27:56.670Z,2.50
2023-04-20T09:28:58.190Z,3.10
2023-04-20T09:30:01.311Z,2.95
2023-04-20T09:31:02.908Z,3.03
2023-04-20T09:32:04.708Z,3.13
2023-04-20T09:33:08.553Z,3.08
2023-04-20T09:34:10.244Z,3.10
2023-04-20T09:35:11.841Z,2.95
2023-04-20T09:36:13.624Z,3.40
2023-04-20T09:37:16.559Z,3.40
2023-04-20T09:38:26.735Z,2.90
2023-04-20T09:39:28.381Z,2.97
2023-04-20T09:40:30.520Z,2.80
2023-04-20T09:41:32.683Z,2.65
2023-04-20T09:42:38.428Z,2.80
2023-04-20T09:43:40.744Z,3.05
2023-04-20T09:44:43.331Z,3.30
2023-04-20T09:46:46.902Z,3.33
2023-04-20T09:47:49.960Z,3.13
2023-04-20T09:48:51.750Z,2.95
2023-04-20T09:49:53.639Z,2.90
2023-04-20T09:50:55.431Z,2.83
2023-04-20T09:51:58.593Z,2.80
2023-04-20T09:53:00.297Z,2.70
2023-04-20T09:54:03.404Z,3.50
2023-04-20T09:55:07.535Z,3.15
2023-04-20T09:56:09.797Z,3.15
2023-04-20T09:57:12.853Z,2.97
2023-04-20T09:58:14.474Z,3.10
2023-04-20T09:59:17.495Z,2.90
2023-04-20T10:00:19.564Z,2.95
2023-04-20T10:01:22.552Z,3.00
2023-04-20T10:02:24.320Z,3.40
2023-04-20T10:03:26.325Z,3.13
2023-04-20T10:04:28.186Z,2.88
2023-04-20T10:05:37.112Z,3.25
2023-04-20T10:06:38.870Z,3.08
2023-04-20T10:07:40.473Z,3.20
2023-04-20T10:08:43.153Z,3.47
2023-04-20T10:09:44.711Z,3.75
2023-04-20T10:10:50.502Z,2.70
2023-04-20T10:11:54.560Z,3.17
2023-04-20T10:13:01.133Z,3.05
2023-04-20T10:14:17.287Z,3.53
2023-04-20T10:15:21.645Z,3.40
2023-04-20T10:16:23.368Z,3.10
2023-04-20T10:17:32.168Z,3.78
2023-04-20T10:18:33.857Z,3.63
2023-04-20T10:19:44.534Z,3.95
2023-04-20T10:20:46.586Z,3.97
2023-04-20T10:21:50.180Z,3.60
2023-04-20T10:22:52.740Z,3.63
2023-04-20T10:24:55.906Z,3.47
2023-04-20T10:26:01.034Z,3.60
2023-04-20T10:27:03.970Z,3.92
2023-04-20T10:28:09.383Z,3.40
2023-04-20T10:29:12.627Z,4.20
2023-04-20T10:30:16.121Z,3.88
2023-04-20T10:31:17.851Z,4.13
2023-04-20T10:32:27.572Z,4.20
2023-04-20T10:33:29.164Z,4.53
2023-04-20T10:34:34.689Z,5.03
2023-04-20T10:35:49.258Z,3.92
2023-04-20T10:36:50.784Z,4.80
2023-04-20T10:37:52.447Z,4.57
2023-04-20T10:38:54.747Z,4.57
2023-04-20T10:39:56.331Z,5.13
2023-04-20T10:41:08.935Z,5.85
2023-04-20T10:42:10.542Z,5.45
2023-04-20T10:43:21.508Z,5.35
2023-04-20T10:44:23.201Z,5.30
2023-04-20T10:45:35.571Z,5.57
2023-04-20T10:46:37.221Z,5.30
2023-04-20T10:47:40.812Z,5.50
2023-04-20T10:49:01.513Z,5.40
2023-04-20T10:50:13.709Z,6.00
2023-04-20T10:51:16.171Z,5.07
2023-04-20T10:52:17.732Z,5.47
2023-04-20T10:53:23.333Z,5.68
2023-04-20T10:54:25.114Z,5.63
2023-04-20T10:55:26.957Z,5.85
2023-04-20T10:56:36.362Z,5.50
2023-04-20T10:57:37.928Z,5.63
2023-04-20T10:58:41.109Z,5.47
2023-04-20T10:59:42.678Z,6.38
2023-04-20T11:00:44.200Z,5.80
2023-04-20T11:01:46.775Z,6.18
2023-04-20T11:02:53.817Z,5.30
2023-04-20T11:03:55.799Z,5.30
2023-04-20T11:05:00.956Z,5.15
2023-04-20T11:06:03.856Z,5.78
2023-04-20T11:07:07.273Z,5.85
2023-04-20T11:08:08.876Z,5.53
2023-04-20T11:09:20.804Z,5.68
2023-04-20T11:10:43.758Z,5.60
2023-04-20T11:11:45.278Z,5.57
2023-04-20T11:12:46.833Z,5.82
2023-04-20T11:13:48.548Z,5.55
2023-04-20T11:15:02.862Z,5.47
2023-04-20T11:16:12.486Z,5.65
2023-04-20T11:17:14.085Z,5.93
2023-04-20T11:18:16.266Z,5.60
2023-04-20T11:19:28.498Z,6.40
2023-04-20T11:20:30.161Z,5.72
2023-04-20T11:21:38.863Z,5.53
2023-04-20T11:23:45.645Z,5.50
2023-04-20T11:24:47.208Z,6.03
2023-04-20T11:25:52.888Z,5.70
2023-04-20T11:26:55.997Z,5.80
2023-04-20T11:28:08.730Z,5.10
2023-04-20T11:29:10.304Z,5.28
2023-04-20T11:30:12.111Z,5.20
2023-04-20T11:31:18.217Z,5.22
2023-04-20T11:32:20.166Z,5.22
2023-04-20T11:33:31.610Z,5.60
2023-04-20T11:34:34.664Z,5.85
2023-04-20T11:35:41.453Z,5.60
2023-04-20T11:36:42.983Z,6.05
2023-04-20T11:37:54.663Z,5.28
2023-04-20T11:39:07.233Z,5.63
2023-04-20T11:40:10.336Z,5.38
2023-04-20T11:41:11.815Z,5.50
2023-04-20T11:42:13.431Z,5.63
2023-04-20T11:43:15.342Z,5.63
2023-04-20T11:44:17.076Z,5.47
2023-04-20T11:45:18.720Z,5.30
2023-04-20T11:46:20.519Z,5.18
2023-04-20T11:47:22.197Z,6.05
2023-04-20T11:48:23.776Z,5.05
2023-04-20T11:49:27.279Z,5.07
2023-04-20T11:50:28.930Z,5.88
2023-04-20T11:51:31.196Z,5.78
2023-04-20T11:52:33.253Z,5.07
2023-04-20T11:53:34.888Z,5.28
2023-04-20T11:54:36.674Z,4.78
2023-04-20T11:55:38.334Z,4.43
2023-04-20T11:56:42.510Z,4.93
2023-04-20T11:57:44.314Z,5.03
2023-04-20T11:58:46.208Z,5.40
2023-04-20T11:59:49.091Z,5.90
2023-04-20T12:00:51.052Z,5.70
2023-04-20T12:01:52.554Z,5.38
2023-04-20T12:02:54.250Z,5.50
2023-04-20T12:03:56.171Z,5.10
2023-04-20T12:04:58.145Z,4.68
2023-04-20T12:05:59.778Z,4.55
2023-04-20T12:07:03.000Z,5.20
2023-04-20T12:08:04.811Z,5.32
2023-04-20T12:09:06.468Z,4.85
2023-04-20T12:10:08.711Z,5.05
2023-04-20T12:11:10.342Z,4.57
2023-04-20T12:12:11.837Z,4.60
2023-04-20T12:13:13.522Z,5.20
2023-04-20T12:14:15.077Z,5.25
2023-04-20T12:15:16.977Z,4.45
2023-04-20T12:16:18.626Z,5.35
2023-04-20T12:17:20.243Z,5.00
2023-04-20T12:18:21.931Z,5.35
2023-04-20T12:19:23.479Z,5.20
2023-04-20T12:20:25.099Z,5.28
2023-04-20T12:21:27.383Z,5.18
2023-04-20T12:22:28.933Z,4.45
2023-04-20T12:23:30.835Z,4.93
2023-04-20T12:24:32.361Z,4.90
2023-04-20T12:25:34.311Z,4.70
2023-04-20T12:26:38.720Z,4.72
2023-04-20T12:27:40.475Z,4.45
2023-04-20T12:28:41.991Z,4.85
2023-04-20T12:29:43.503Z,5.20
2023-04-20T12:30:45.282Z,4.75
2023-04-20T12:31:46.891Z,5.05
2023-04-20T12:32:48.546Z,4.70
2023-04-20T12:33:50.138Z,5.03
2023-04-20T12:34:51.599Z,5.35
2023-04-20T12:35:53.266Z,5.10
2023-04-20T12:36:54.791Z,5.13
2023-04-20T12:37:56.438Z,4.95
2023-04-20T12:38:58.426Z,5.38
2023-04-20T12:40:00.186Z,4.82
2023-04-20T12:41:02.352Z,5.03
2023-04-20T12:42:04.110Z,4.82
2023-04-20T12:43:05.722Z,5.05
2023-04-20T12:44:08.661Z,4.90
2023-04-20T12:45:11.705Z,4.70
2023-04-20T12:46:13.384Z,4.93
2023-04-20T12:47:15.162Z,5.03
2023-04-20T12:48:16.846Z,4.63
2023-04-20T12:49:18.628Z,5.00
2023-04-20T12:50:20.594Z,5.18
2023-04-20T12:51:22.088Z,4.75
2023-04-20T12:52:23.842Z,5.07
2023-04-20T12:53:25.428Z,5.03
2023-04-20T12:54:27.144Z,4.90
2023-04-20T12:55:28.922Z,5.05
2023-04-20T12:56:30.668Z,5.05
2023-04-20T12:57:32.345Z,5.00
2023-04-20T12:58:33.913Z,4.72
2023-04-20T12:59:35.562Z,4.82
2023-04-20T13:00:37.160Z,5.30
2023-04-20T13:01:38.717Z,4.88
2023-04-20T13:02:40.530Z,4.65
2023-04-20T13:03:42.589Z,5.53
2023-04-20T13:04:45.459Z,5.32
2023-04-20T13:05:47.045Z,5.05
2023-04-20T13:06:49.169Z,5.80
2023-04-20T13:07:51.519Z,5.35
2023-04-20T13:08:53.134Z,5.75
2023-04-20T13:09:54.785Z,5.57
2023-04-20T13:10:56.447Z,5.65
2023-04-20T13:11:58.168Z,5.10
2023-04-20T13:12:59.963Z,5.07
2023-04-20T13:14:01.576Z,5.43
2023-04-20T13:15:03.455Z,5.25
2023-04-20T13:16:05.333Z,4.95
2023-04-20T13:17:07.473Z,5.18
2023-04-20T13:18:13.604Z,5.18
2023-04-20T13:19:15.521Z,5.60
2023-04-20T13:20:17.214Z,5.10
2023-04-20T13:21:18.890Z,4.85
2023-04-20T13:22:20.521Z,4.90
2023-04-20T13:23:24.559Z,5.00
2023-04-20T13:24:26.209Z,4.93
2023-04-20T13:25:28.987Z,5.03
2023-04-20T13:26:30.636Z,4.95
2023-04-20T13:27:32.616Z,5.18
2023-04-20T13:28:34.408Z,5.40
2023-04-20T13:29:35.954Z,5.32
2023-04-20T13:30:38.004Z,5.07
2023-04-20T13:31:40.594Z,4.90
2023-04-20T13:32:42.175Z,5.18
2023-04-20T13:33:43.994Z,5.10
2023-04-20T13:34:46.085Z,5.90
2023-04-20T13:35:47.690Z,5.55
2023-04-20T13:36:49.684Z,5.10
2023-04-20T13:37:51.522Z,5.68
2023-04-20T13:38:53.577Z,5.70
2023-04-20T13:39:55.736Z,4.97
2023-04-20T13:40:57.378Z,4.70
2023-04-20T13:41:58.976Z,5.00
2023-04-20T13:43:00.495Z,5.00
2023-04-20T13:44:02.443Z,6.32
2023-04-20T13:45:04.911Z,4.88
2023-04-20T13:47:07.968Z,4.70
2023-04-20T13:48:09.660Z,4.88
2023-04-20T13:49:13.384Z,5.15
2023-04-20T13:50:15.499Z,4.80
2023-04-20T13:51:17.081Z,5.28
2023-04-20T13:52:18.719Z,4.65
2023-04-20T13:53:20.351Z,5.05
2023-04-20T13:54:21.959Z,4.78
2023-04-20T13:55:25.108Z,5.50
2023-04-20T13:56:28.461Z,5.00
2023-04-20T13:57:31.582Z,5.40
2023-04-20T13:58:33.152Z,5.18
2023-04-20T13:59:34.946Z,5.15
2023-04-20T14:00:36.465Z,4.70